Time;durP1;ratioP1;P1;durP2;ratioP2;P2;SDS_P1;SDS_P2;PMS_P1;PMS_P2;Temp;Humidity;BMP_temperature;BMP_pressure;BME280_temperature;BME280_humidity;BME280_pressure;Samples;Min_cycle;Max_cycle;Signal;HPM_P1;HPM_P2
2021/04/10 00:01:12;;;;;;;100.80;58.20;;;102.80;2227.20;;;;;;4955789;29;20038;-83
2021/04/10 00:03:38;;;;;;;144.38;81.15;;;102.60;2227.20;;;;;;4956200;29;20031;-83
2021/04/10 00:06:04;;;;;;;118.65;66.32;;;102.50;2227.20;;;;;;4957282;29;20031;-81
2021/04/10 00:08:30;;;;;;;116.55;67.15;;;102.40;2227.20;;;;;;4955861;29;20030;-81
2021/04/10 00:10:56;;;;;;;133.93;68.38;;;102.40;2227.20;;;;;;4957348;29;20035;-83
2021/04/10 00:13:22;;;;;;;112.97;60.60;;;102.50;2227.20;;;;;;4958576;28;20512;-83
2021/04/10 00:15:48;;;;;;;90.72;50.05;;;102.40;2227.20;;;;;;4978092;28;20489;-83
2021/04/10 00:18:14;;;;;;;86.82;48.90;;;77.70;2227.20;;;;;;4977767;28;20120;-81
2021/04/10 00:20:40;;;;;;;76.10;46.47;;;77.70;2227.20;;;;;;4978159;28;20027;-82
2021/04/10 00:23:07;;;;;;;64.22;36.40;;;77.50;2227.20;;;;;;4977320;28;20027;-82
2021/04/10 00:25:33;;;;;;;52.38;32.53;;;77.40;2227.20;;;;;;4978325;28;20398;-83
2021/04/10 00:27:59;;;;;;;49.65;28.83;;;77.40;2227.20;;;;;;4977312;28;20034;-83
2021/04/10 00:30:25;;;;;;;54.58;29.52;;;77.40;2227.20;;;;;;4978079;28;20026;-84
2021/04/10 00:32:51;;;;;;;50.67;28.48;;;77.30;2227.20;;;;;;4977893;28;20038;-83
2021/04/10 00:35:17;;;;;;;50.20;28.92;;;77.40;2227.20;;;;;;4978346;28;20090;-82
2021/04/10 00:37:42;;;;;;;69.30;39.33;;;77.40;2227.20;;;;;;4977924;28;20026;-85
2021/04/10 00:40:09;;;;;;;55.25;29.48;;;77.70;2227.20;;;;;;4978329;28;20476;-84
2021/04/10 00:42:37;;;;;;;69.47;37.50;;;77.70;2227.20;;;;;;4978087;28;20037;-83
2021/04/10 00:45:07;;;;;;;69.40;39.85;;;77.50;2227.20;;;;;;4995551;28;20030;-84
2021/04/10 00:47:33;;;;;;;69.80;42.05;;;77.40;2227.20;;;;;;4978965;28;20078;-82
2021/04/10 00:49:58;;;;;;;78.90;40.13;;;77.30;2227.20;;;;;;4977801;28;20060;-83
2021/04/10 00:52:24;;;;;;;71.68;41.33;;;77.40;2227.20;;;;;;4978588;28;20030;-84
2021/04/10 00:54:51;;;;;;;61.72;36.30;;;77.30;2227.20;;;;;;4978378;28;20023;-82
2021/04/10 00:57:18;;;;;;;203.15;81.20;;;77.20;2227.20;;;;;;4977879;28;20378;-83
2021/04/10 00:59:45;;;;;;;149.40;63.72;;;77.10;2227.20;;;;;;4977925;28;20035;-83
2021/04/10 01:02:12;;;;;;;72.57;38.42;;;77.10;2227.20;;;;;;4978183;28;20049;-85
2021/04/10 01:04:39;;;;;;;67.18;37.97;;;77.10;2227.20;;;;;;4977743;28;20459;-85
2021/04/10 01:07:05;;;;;;;81.85;41.45;;;77.20;2227.20;;;;;;4977951;28;20037;-85
2021/04/10 01:09:31;;;;;;;78.47;41.15;;;77.20;2227.20;;;;;;4977781;28;20030;-83
2021/04/10 01:11:57;;;;;;;72.68;37.33;;;77.30;2227.20;;;;;;4994664;28;20513;-84
2021/04/10 01:14:41;;;;;;;54.53;30.15;;;77.20;2227.20;;;;;;4993897;28;20113;-84
2021/04/10 01:17:10;;;;;;;60.05;33.97;;;77.00;2227.20;;;;;;4977699;28;20030;-84
2021/04/10 01:20:06;;;;;;;58.28;33.05;;;76.90;2227.20;;;;;;4977447;28;20031;-84
2021/04/10 01:22:32;;;;;;;66.13;35.42;;;77.00;2227.20;;;;;;4993850;28;20034;-82
2021/04/10 01:25:04;;;;;;;53.42;31.05;;;76.90;2227.20;;;;;;4994562;28;20039;-84
2021/04/10 01:27:37;;;;;;;52.90;29.75;;;76.80;2227.20;;;;;;4977512;28;20125;-84
2021/04/10 01:30:21;;;;;;;55.03;32.17;;;52.10;2227.20;;;;;;4977696;28;20471;-84
2021/04/10 01:33:03;;;;;;;67.82;37.05;;;76.90;2227.20;;;;;;4977496;28;20168;-83
2021/04/10 01:35:40;;;;;;;55.20;31.20;;;76.80;2227.20;;;;;;4994869;28;20035;-84
2021/04/10 01:38:14;;;;;;;49.75;26.55;;;76.80;2227.20;;;;;;4977683;28;20039;-83
2021/04/10 01:40:41;;;;;;;49.78;26.83;;;52.00;2227.20;;;;;;4977477;28;20066;-85
2021/04/10 01:43:08;;;;;;;53.28;31.05;;;51.90;2227.20;;;;;;4977602;28;20037;-84
2021/04/10 01:45:35;;;;;;;78.45;41.40;;;51.90;2227.20;;;;;;4977133;28;20026;-84
2021/04/10 01:48:05;;;;;;;70.60;36.92;;;52.00;2227.20;;;;;;4977978;28;20026;-84
2021/04/10 01:50:32;;;;;;;53.08;28.98;;;52.10;2227.20;;;;;;4977457;28;20061;-85
2021/04/10 01:52:59;;;;;;;56.97;29.58;;;76.80;2227.20;;;;;;4977015;28;20031;-83
2021/04/10 01:55:26;;;;;;;62.92;34.55;;;76.90;2227.20;;;;;;4979433;28;20037;-84
2021/04/10 01:57:52;;;;;;;39.72;22.75;;;76.90;2227.20;;;;;;4981335;28;20466;-85
2021/04/10 02:00:20;;;;;;;44.17;22.55;;;76.80;2227.20;;;;;;4980984;28;20030;-83
2021/04/10 02:02:48;;;;;;;58.17;35.45;;;76.80;2227.20;;;;;;4981094;28;20474;-84
2021/04/10 02:05:15;;;;;;;56.30;29.15;;;76.90;2227.20;;;;;;4980792;28;20069;-85
2021/04/10 02:07:45;;;;;;;55.63;29.38;;;51.90;2227.20;;;;;;4980884;28;20027;-84
2021/04/10 02:10:14;;;;;;;51.22;28.80;;;51.90;2227.20;;;;;;4981149;28;20030;-85
2021/04/10 02:12:42;;;;;;;55.58;30.92;;;51.90;2227.20;;;;;;4980606;28;20050;-84
2021/04/10 02:15:09;;;;;;;52.90;30.48;;;51.90;2227.20;;;;;;4980818;28;20081;-85
2021/04/10 02:17:35;;;;;;;51.60;30.33;;;51.90;2227.20;;;;;;4980916;28;20111;-83
2021/04/10 02:20:03;;;;;;;43.60;26.33;;;52.00;2227.20;;;;;;4980665;28;20143;-86
2021/04/10 02:22:33;;;;;;;35.63;22.08;;;51.80;2227.20;;;;;;4980698;28;20050;-83
2021/04/10 02:24:59;;;;;;;57.03;35.40;;;51.80;2227.20;;;;;;4981653;28;20061;-84
2021/04/10 02:27:25;;;;;;;56.10;33.10;;;51.80;2227.20;;;;;;4980774;28;20158;-84
2021/04/10 02:29:51;;;;;;;51.40;29.95;;;51.60;2227.20;;;;;;4980473;28;20027;-84
2021/04/10 02:32:46;;;;;;;43.38;25.50;;;51.60;2227.20;;;;;;4980787;28;20100;-84
2021/04/10 02:35:24;;;;;;;46.58;25.67;;;51.70;2227.20;;;;;;4980484;28;20116;-86
2021/04/10 02:37:52;;;;;;;35.25;18.83;;;51.60;2227.20;;;;;;4980447;28;20069;-85
2021/04/10 02:40:20;;;;;;;41.08;21.55;;;51.50;2227.20;;;;;;4981141;28;20417;-84
2021/04/10 02:42:47;;;;;;;42.30;22.73;;;51.50;2227.20;;;;;;4980459;28;20060;-88
2021/04/10 02:45:20;;;;;;;51.80;23.48;;;51.40;2227.20;;;;;;4979486;28;20030;-85
2021/04/10 02:47:49;;;;;;;54.85;30.48;;;51.50;2227.20;;;;;;4980416;28;20034;-88
2021/04/10 02:50:17;;;;;;;58.10;30.88;;;51.60;2227.20;;;;;;4979665;28;20066;-86
2021/04/10 02:52:49;;;;;;;53.25;26.85;;;51.60;2227.20;;;;;;4980876;28;20026;-85
2021/04/10 02:55:20;;;;;;;45.15;24.65;;;51.50;2227.20;;;;;;4980375;28;20073;-84
2021/04/10 02:57:48;;;;;;;46.33;25.85;;;51.50;2227.20;;;;;;4979970;28;20054;-85
2021/04/10 03:00:18;;;;;;;53.63;27.15;;;51.30;2227.20;;;;;;4980167;28;20030;-84
2021/04/10 03:02:44;;;;;;;51.15;26.88;;;51.30;2227.20;;;;;;4979720;28;20030;-86
2021/04/10 03:05:12;;;;;;;45.65;24.98;;;26.50;2201.60;;;;;;4980127;28;20446;-85
2021/04/10 03:07:46;;;;;;;45.25;24.02;;;26.50;2201.60;;;;;;4996309;28;20115;-86
2021/04/10 03:10:16;;;;;;;37.97;22.15;;;51.30;2227.20;;;;;;4980144;28;20374;-87
2021/04/10 03:12:43;;;;;;;33.78;19.17;;;26.50;2201.60;;;;;;4979570;28;20046;-85
2021/04/10 03:15:13;;;;;;;39.30;21.90;;;26.20;2201.60;;;;;;4979798;28;20035;-83
2021/04/10 03:17:40;;;;;;;43.60;22.77;;;26.50;2201.60;;;;;;4980004;28;20129;-86
2021/04/10 03:20:11;;;;;;;43.13;21.90;;;26.40;2201.60;;;;;;4979798;28;20041;-87
2021/04/10 03:22:37;;;;;;;35.70;20.15;;;26.20;2201.60;;;;;;4978831;28;20114;-84
2021/04/10 03:25:03;;;;;;;35.63;21.00;;;26.50;2201.60;;;;;;4979806;28;20109;-83
2021/04/10 03:27:29;;;;;;;37.03;20.67;;;26.30;2201.60;;;;;;4978631;28;20089;-85
2021/04/10 03:29:56;;;;;;;33.15;19.55;;;26.40;2201.60;;;;;;4980321;28;20406;-84
2021/04/10 03:32:23;;;;;;;35.85;19.58;;;26.00;2201.60;;;;;;4979245;28;20026;-85
2021/04/10 03:34:49;;;;;;;30.90;18.27;;;26.10;2201.60;;;;;;4979463;28;20030;-84
2021/04/10 03:37:14;;;;;;;32.70;18.85;;;26.10;2201.60;;;;;;4979220;28;20027;-83
2021/04/10 03:39:41;;;;;;;32.75;19.85;;;26.10;2201.60;;;;;;4979287;28;20034;-84
2021/04/10 03:42:09;;;;;;;41.00;26.77;;;26.10;2201.60;;;;;;4979439;28;20094;-84
2021/04/10 03:44:35;;;;;;;44.63;25.38;;;26.20;2201.60;;;;;;4979316;28;20026;-87
2021/04/10 03:47:01;;;;;;;36.40;20.02;;;26.10;2201.60;;;;;;4979276;28;20090;-84
2021/04/10 03:49:27;;;;;;;34.45;19.58;;;26.00;2201.60;;;;;;4979380;28;20030;-83
2021/04/10 03:51:52;;;;;;;43.13;24.05;;;26.00;2201.60;;;;;;4979017;28;20030;-84
2021/04/10 03:54:18;;;;;;;46.13;26.13;;;26.00;2201.60;;;;;;4978949;28;20112;-84
2021/04/10 03:56:44;;;;;;;51.90;30.00;;;26.10;2201.60;;;;;;4979181;28;20030;-84
2021/04/10 03:59:10;;;;;;;57.40;32.03;;;26.20;2201.60;;;;;;4977551;28;20545;-83
2021/04/10 04:01:36;;;;;;;53.60;30.23;;;26.20;2201.60;;;;;;4978904;28;20026;-86
2021/04/10 04:04:01;;;;;;;54.63;31.13;;;26.10;2201.60;;;;;;4978144;28;20026;-85
2021/04/10 04:06:27;;;;;;;53.35;31.77;;;26.30;2201.60;;;;;;4978469;28;20033;-84
2021/04/10 04:08:53;;;;;;;50.08;28.35;;;26.10;2201.60;;;;;;4978852;28;20026;-84
2021/04/10 04:11:19;;;;;;;49.67;24.58;;;26.10;2201.60;;;;;;4978211;28;20125;-84
2021/04/10 04:13:45;;;;;;;41.13;24.20;;;26.20;2201.60;;;;;;4977585;28;20026;-85
2021/04/10 04:16:10;;;;;;;50.47;25.50;;;26.20;2201.60;;;;;;4978707;28;20030;-84
2021/04/10 04:18:36;;;;;;;118.65;51.85;;;26.20;2201.60;;;;;;4977437;28;20061;-82
2021/04/10 04:21:03;;;;;;;125.32;53.38;;;26.10;2201.60;;;;;;4978343;28;20042;-84
2021/04/10 04:23:29;;;;;;;58.80;31.48;;;26.10;2201.60;;;;;;4978535;28;20026;-83
2021/04/10 04:25:55;;;;;;;48.00;26.90;;;26.10;2201.60;;;;;;4978420;28;20121;-83
2021/04/10 04:28:21;;;;;;;54.20;32.22;;;26.10;2201.60;;;;;;4977481;28;20025;-85
2021/04/10 04:30:47;;;;;;;57.15;31.05;;;26.00;2201.60;;;;;;4978449;28;20026;-82
2021/04/10 04:33:13;;;;;;;58.35;37.55;;;26.00;2201.60;;;;;;4977718;28;20118;-81
2021/04/10 04:35:39;;;;;;;102.32;58.38;;;26.00;2201.60;;;;;;4977804;28;20121;-85
2021/04/10 04:38:05;;;;;;;77.40;42.45;;;25.90;2201.60;;;;;;4978221;28;20383;-86
2021/04/10 04:40:31;;;;;;;141.70;82.38;;;25.70;2201.60;;;;;;4978551;28;20085;-84
2021/04/10 04:42:56;;;;;;;110.38;58.90;;;25.80;2201.60;;;;;;4978047;28;20038;-86
2021/04/10 04:45:24;;;;;;;87.05;53.17;;;26.00;2201.60;;;;;;4978085;28;20030;-82
2021/04/10 04:47:49;;;;;;;42.47;22.92;;;26.10;2201.60;;;;;;4977782;28;20022;-84
2021/04/10 04:50:15;;;;;;;61.70;39.38;;;25.90;2201.60;;;;;;4978347;28;20081;-85
2021/04/10 04:52:41;;;;;;;44.05;26.10;;;25.90;2201.60;;;;;;4978110;28;20462;-85
2021/04/10 04:55:08;;;;;;;39.90;24.05;;;26.00;2201.60;;;;;;4977745;28;20029;-87
2021/04/10 04:57:33;;;;;;;63.25;37.00;;;26.10;2201.60;;;;;;4977990;28;20493;-83
2021/04/10 04:59:59;;;;;;;43.55;25.65;;;26.20;2201.60;;;;;;4977662;28;20030;-85
2021/04/10 05:02:25;;;;;;;48.60;32.05;;;26.30;2201.60;;;;;;4977727;28;20034;-84
2021/04/10 05:04:51;;;;;;;54.92;34.17;;;26.20;2201.60;;;;;;4977927;28;20101;-86
2021/04/10 05:07:17;;;;;;;53.13;35.95;;;26.30;2201.60;;;;;;4977934;28;20030;-84
2021/04/10 05:09:42;;;;;;;55.72;32.33;;;26.50;2201.60;;;;;;4977818;28;20030;-86
2021/04/10 05:12:08;;;;;;;58.78;34.50;;;51.30;2227.20;;;;;;4977568;28;20062;-84
2021/04/10 05:14:34;;;;;;;56.80;34.70;;;51.40;2227.20;;;;;;4977707;28;20034;-85
2021/04/10 05:17:00;;;;;;;64.55;37.83;;;51.60;2227.20;;;;;;4977660;28;20018;-84
2021/04/10 05:19:26;;;;;;;84.35;51.20;;;51.70;2227.20;;;;;;4977993;28;20030;-87
2021/04/10 05:21:51;;;;;;;88.85;51.75;;;51.80;2227.20;;;;;;4977275;28;20489;-83
2021/04/10 05:24:17;;;;;;;82.00;48.83;;;51.80;2227.20;;;;;;4977236;28;20026;-84
2021/04/10 05:26:43;;;;;;;104.15;61.40;;;52.00;2227.20;;;;;;4977971;28;20034;-85
2021/04/10 05:29:09;;;;;;;91.00;53.60;;;51.90;2227.20;;;;;;4977225;28;20469;-84
2021/04/10 05:31:34;;;;;;;77.82;46.90;;;51.90;2227.20;;;;;;4976949;28;20081;-84
2021/04/10 05:34:00;;;;;;;106.75;65.22;;;51.80;2227.20;;;;;;4977478;28;20037;-85
2021/04/10 05:36:26;;;;;;;190.13;108.18;;;51.90;2227.20;;;;;;4978034;28;20022;-84
2021/04/10 05:38:52;;;;;;;167.35;103.70;;;51.80;2227.20;;;;;;4977031;28;20027;-86
2021/04/10 05:41:18;;;;;;;92.07;50.50;;;51.90;2227.20;;;;;;4977569;28;20582;-83
2021/04/10 05:43:43;;;;;;;83.65;51.08;;;76.80;2227.20;;;;;;4994846;28;20026;-85
2021/04/10 05:46:10;;;;;;;77.32;42.05;;;76.80;2227.20;;;;;;4977475;28;20082;-84
2021/04/10 05:48:37;;;;;;;73.93;42.65;;;76.80;2227.20;;;;;;4977547;28;20053;-85
2021/04/10 05:51:03;;;;;;;95.25;56.97;;;77.10;2227.20;;;;;;4977328;28;20029;-84
2021/04/10 05:53:28;;;;;;;109.70;65.07;;;52.10;2227.20;;;;;;4977511;28;20031;-86
2021/04/10 05:55:55;;;;;;;77.28;40.83;;;76.80;2227.20;;;;;;4976996;28;20023;-85
2021/04/10 05:58:21;;;;;;;64.28;37.97;;;77.50;2227.20;;;;;;4977329;28;20030;-85
2021/04/10 06:00:47;;;;;;;81.30;37.50;;;76.90;2227.20;;;;;;4977621;28;20117;-84
2021/04/10 06:03:15;;;;;;;71.22;43.40;;;77.10;2227.20;;;;;;4977187;28;20141;-85
2021/04/10 06:05:44;;;;;;;71.80;38.88;;;76.90;2227.20;;;;;;4977001;28;20033;-84
2021/04/10 06:08:10;;;;;;;67.55;37.38;;;77.30;2227.20;;;;;;4994473;28;20053;-85
2021/04/10 06:10:36;;;;;;;55.67;34.55;;;77.40;2227.20;;;;;;4977078;28;20058;-84
2021/04/10 06:13:01;;;;;;;65.13;33.03;;;77.50;2227.20;;;;;;4976795;28;20058;-84
2021/04/10 06:15:27;;;;;;;61.13;35.55;;;77.60;2227.20;;;;;;4977137;28;20117;-85
2021/04/10 06:17:53;;;;;;;94.05;44.72;;;77.70;2227.20;;;;;;4977013;28;20454;-86
2021/04/10 06:20:21;;;;;;;68.28;36.03;;;102.40;2227.20;;;;;;4976888;28;20409;-84
2021/04/10 06:22:47;;;;;;;69.53;34.90;;;102.40;2227.20;;;;;;4975165;28;20023;-84
2021/04/10 06:25:13;;;;;;;69.20;41.00;;;102.50;2227.20;;;;;;4977257;28;20030;-82
2021/04/10 06:27:39;;;;;;;50.95;28.95;;;102.50;2227.20;;;;;;4993103;28;20046;-82
2021/04/10 06:30:06;;;;;;;51.17;28.42;;;102.70;2227.20;;;;;;4976817;28;20050;-83
2021/04/10 06:32:32;;;;;;;48.47;28.45;;;102.80;2227.20;;;;;;4976576;28;20030;-81
2021/04/10 06:34:58;;;;;;;49.97;27.75;;;102.90;2227.20;;;;;;4977454;28;20030;-81
2021/04/10 06:37:24;;;;;;;59.95;41.85;;;103.00;2227.20;;;;;;4994043;28;20026;-81
2021/04/10 06:39:50;;;;;;;47.45;30.52;;;103.10;2227.20;;;;;;4976360;28;20037;-84
2021/04/10 06:42:15;;;;;;;50.63;34.78;;;103.20;2227.20;;;;;;4979439;28;20124;-82
2021/04/10 06:44:41;;;;;;;42.38;22.50;;;103.30;2227.20;;;;;;4980289;28;20033;-83
2021/04/10 06:47:07;;;;;;;46.20;28.55;;;128.00;2252.80;;;;;;4979951;28;20029;-84
2021/04/10 06:49:34;;;;;;;48.78;28.15;;;128.20;2252.80;;;;;;4980796;28;20034;-84
2021/04/10 06:52:01;;;;;;;39.95;21.85;;;128.40;2252.80;;;;;;4980138;28;20038;-85
2021/04/10 06:54:32;;;;;;;40.47;24.17;;;128.60;2201.60;;;;;;4980098;28;20033;-82
2021/04/10 06:57:17;;;;;;;54.08;32.05;;;128.80;2176.00;;;;;;4980171;28;20026;-85
2021/04/10 07:00:04;;;;;;;29.50;18.58;;;153.60;2176.00;;;;;;4980026;28;20041;-80
2021/04/10 07:02:32;;;;;;;31.17;20.23;;;153.70;1996.80;;;;;;4997354;28;20152;-82
2021/04/10 07:04:58;;;;;;;33.30;18.98;;;153.90;2022.40;;;;;;4980788;28;20541;-82
2021/04/10 07:07:25;;;;;;;26.85;17.98;;;154.00;1971.20;;;;;;4979971;28;20022;-80
2021/04/10 07:09:52;;;;;;;36.95;23.95;;;154.10;1971.20;;;;;;4995811;28;20454;-84
2021/04/10 07:12:18;;;;;;;36.45;24.48;;;154.40;1971.20;;;;;;4979744;28;20054;-84
2021/04/10 07:14:43;;;;;;;40.47;25.48;;;154.50;1996.80;;;;;;4979124;28;20368;-83
2021/04/10 07:17:12;;;;;;;37.60;26.05;;;179.20;1920.00;;;;;;4979471;28;20117;-84
2021/04/10 07:19:39;;;;;;;34.13;21.75;;;179.40;1894.40;;;;;;4980060;28;20034;-84
2021/04/10 07:22:13;;;;;;;34.63;24.80;;;179.40;1843.20;;;;;;4979316;28;20040;-84
2021/04/10 07:24:45;;;;;;;38.90;26.65;;;179.50;1792.00;;;;;;4996794;28;20526;-82
2021/04/10 07:27:21;;;;;;;;;;;179.70;1792.00;;;;;;4980038;28;20081;-81
2021/04/10 07:29:49;;;;;;;31.92;18.50;;;179.90;1715.20;;;;;;4979233;28;19905;-83
2021/04/10 07:32:37;;;;;;;29.90;16.95;;;180.00;1689.60;;;;;;4979270;28;20037;-83
2021/04/10 07:35:10;;;;;;;27.88;18.98;;;180.10;1612.80;;;;;;4979506;28;20030;-84
2021/04/10 07:37:37;;;;;;;17.67;10.70;;;204.80;1664.00;;;;;;4996179;28;20030;-84
2021/04/10 07:40:23;;;;;;;17.77;11.35;;;205.00;1536.00;;;;;;4996585;28;20030;-84
2021/04/10 07:42:50;;;;;;;22.35;13.07;;;205.10;1561.60;;;;;;4978933;28;20049;-84
2021/04/10 07:45:24;;;;;;;24.77;14.52;;;205.30;1561.60;;;;;;4979025;28;20510;-81
2021/04/10 07:47:59;;;;;;;24.08;13.93;;;205.60;1561.60;;;;;;4979118;28;20026;-84
2021/04/10 07:50:27;;;;;;;21.77;14.90;;;205.70;1561.60;;;;;;4978367;28;20117;-82
2021/04/10 07:52:53;;;;;;;26.58;15.80;;;230.40;1587.20;;;;;;4978316;28;20022;-84
2021/04/10 07:55:44;;;;;;;25.05;16.70;;;230.40;1587.20;;;;;;4979015;28;20537;-83
2021/04/10 07:58:27;;;;;;;28.98;14.43;;;230.60;1587.20;;;;;;4978787;28;20031;-81
2021/04/10 08:00:58;;;;;;;18.17;13.13;;;230.70;1561.60;;;;;;4978992;28;20035;-81
2021/04/10 08:03:33;;;;;;;32.50;18.85;;;230.90;1536.00;;;;;;4978904;28;20026;-82
2021/04/10 08:06:19;;;;;;;18.60;12.43;;;231.00;1561.60;;;;;;4978911;28;20033;-81
2021/04/10 08:08:54;;;;;;;24.20;18.35;;;231.00;1561.60;;;;;;4994921;28;20035;-82
2021/04/10 08:11:43;;;;;;;21.63;14.25;;;231.30;1561.60;;;;;;4978532;28;20038;-80
2021/04/10 08:14:11;;;;;;;20.83;13.15;;;256.10;1587.20;;;;;;4978516;28;20034;-81
2021/04/10 08:16:40;;;;;;;18.92;10.95;;;256.20;1587.20;;;;;;4978543;28;20026;-82
2021/04/10 08:19:07;;;;;;;23.15;13.40;;;256.30;1561.60;;;;;;4978967;28;20027;-82
2021/04/10 08:21:32;;;;;;;19.15;11.73;;;256.50;1587.20;;;;;;4978425;28;20109;-81
2021/04/10 08:24:23;;;;;;;20.65;11.43;;;256.70;1561.60;;;;;;4995987;28;20454;-82
2021/04/10 08:27:01;;;;;;;19.63;10.00;;;256.90;1536.00;;;;;;4995413;28;20031;-82
2021/04/10 08:29:27;;;;;;;20.95;12.25;;;256.90;1510.40;;;;;;4978226;28;20030;-82
2021/04/10 08:31:54;;;;;;;23.70;13.63;;;281.80;1561.60;;;;;;4978553;28;20478;-83
2021/04/10 08:34:20;;;;;;;21.02;12.40;;;281.80;1536.00;;;;;;4978714;28;20026;-82
2021/04/10 08:36:55;;;;;;;24.65;14.73;;;282.10;1536.00;;;;;;4978313;28;20030;-82
2021/04/10 08:39:27;;;;;;;22.42;13.65;;;282.20;1510.40;;;;;;4977528;28;20038;-82
2021/04/10 08:41:55;;;;;;;17.52;12.15;;;282.50;1484.80;;;;;;4995603;28;20038;-82
2021/04/10 08:44:25;;;;;;;16.13;10.02;;;282.50;1459.20;;;;;;4995263;28;20165;-79
2021/04/10 08:46:51;;;;;;;14.68;9.32;;;307.20;1459.20;;;;;;4977576;28;20037;-80
2021/04/10 08:49:19;;;;;;;14.32;9.93;;;307.30;1459.20;;;;;;4978427;28;20054;-81
2021/04/10 08:51:47;;;;;;;13.88;10.10;;;307.50;1408.00;;;;;;4978274;28;20030;-79
2021/04/10 08:54:14;;;;;;;17.42;10.30;;;307.60;1408.00;;;;;;4975257;28;20046;-74
2021/04/10 08:56:40;;;;;;;20.30;11.30;;;307.70;1433.60;;;;;;4975478;28;20470;-73
2021/04/10 08:59:16;;;;;;;23.88;12.93;;;307.70;1408.00;;;;;;4994069;28;20019;-74
2021/04/10 09:01:47;;;;;;;15.05;9.52;;;308.00;1408.00;;;;;;4994437;28;20034;-74
2021/04/10 09:04:13;;;;;;;19.48;11.07;;;308.00;1356.80;;;;;;4975927;28;20046;-73
2021/04/10 09:06:39;;;;;;;15.82;8.88;;;332.80;1408.00;;;;;;4993359;28;20474;-75
2021/04/10 09:09:11;;;;;;;23.83;14.35;;;332.90;1331.20;;;;;;4977337;28;20107;-74
2021/04/10 09:11:40;;;;;;;13.88;9.38;;;333.00;1382.40;;;;;;4977236;28;20435;-76
2021/04/10 09:14:06;;;;;;;18.77;10.95;;;333.20;1356.80;;;;;;4994419;28;20026;-77
2021/04/10 09:16:34;;;;;;;18.85;11.35;;;333.30;1331.20;;;;;;4993189;28;20471;-76
2021/04/10 09:19:17;;;;;;;19.35;11.32;;;333.40;1331.20;;;;;;4976408;28;20074;-75
2021/04/10 09:21:47;;;;;;;;;;;333.40;1356.80;;;;;;4975662;28;20035;-75
2021/04/10 09:24:37;;;;;;;14.15;7.60;;;333.50;1305.60;;;;;;4994047;28;20033;-74
2021/04/10 09:27:28;;;;;;;17.80;11.25;;;333.60;1305.60;;;;;;4994514;28;20521;-77
2021/04/10 09:30:05;;;;;;;16.50;9.40;;;358.40;1331.20;;;;;;4992204;28;20479;-77
2021/04/10 09:32:43;;;;;;;12.63;7.85;;;358.50;1331.20;;;;;;4992375;28;20037;-77
2021/04/10 09:35:11;;;;;;;18.35;8.63;;;358.40;1305.60;;;;;;4975516;28;20038;-77
2021/04/10 09:37:37;;;;;;;12.75;6.90;;;358.70;1305.60;;;;;;4994553;28;20466;-77
2021/04/10 09:40:09;;;;;;;11.95;6.57;;;358.80;1254.40;;;;;;4976899;28;20030;-77
2021/04/10 09:42:35;;;;;;;11.88;6.97;;;358.90;1254.40;;;;;;4976618;28;20034;-77
2021/04/10 09:45:17;;;;;;;15.00;8.07;;;358.90;1228.80;;;;;;4976833;28;20378;-77
2021/04/10 09:47:54;;;;;;;18.13;9.95;;;384.00;1254.40;;;;;;4976953;28;20033;-77
2021/04/10 09:50:53;;;;;;;13.52;8.45;;;384.00;1254.40;;;;;;4976528;28;20089;-77
2021/04/10 09:53:23;;;;;;;12.63;6.95;;;384.00;1254.40;;;;;;4939816;28;20393;-77
2021/04/10 09:56:03;;;;;;;15.25;6.72;;;384.20;1228.80;;;;;;4993728;28;20460;-77
2021/04/10 09:58:37;;;;;;;14.82;7.80;;;384.30;1203.20;;;;;;4976748;28;20073;-77
2021/04/10 10:01:06;;;;;;;11.77;7.07;;;384.60;1203.20;;;;;;4976809;28;20031;-77
2021/04/10 10:03:32;;;;;;;18.17;8.82;;;384.70;1177.60;;;;;;4976727;28;20181;-77
2021/04/10 10:05:58;;;;;;;12.57;7.90;;;384.90;1177.60;;;;;;4994181;28;20478;-77
2021/04/10 10:08:28;;;;;;;11.65;6.70;;;409.80;1203.20;;;;;;4994169;28;20037;-77
2021/04/10 10:11:04;;;;;;;11.70;5.90;;;409.90;1152.00;;;;;;4992269;28;20105;-77
2021/04/10 10:13:31;;;;;;;10.45;6.65;;;410.00;1100.80;;;;;;4994002;28;20061;-77
2021/04/10 10:15:58;;;;;;;11.68;6.50;;;410.30;1152.00;;;;;;4995151;28;20022;-78
2021/04/10 10:18:40;;;;;;;13.38;8.05;;;410.50;1152.00;;;;;;4997552;28;20034;-77
2021/04/10 10:21:23;;;;;;;10.75;6.95;;;435.20;1126.40;;;;;;4997675;28;20367;-77
2021/04/10 10:23:50;;;;;;;11.63;6.05;;;435.40;1126.40;;;;;;4980666;28;20034;-78
2021/04/10 10:26:19;;;;;;;14.55;8.25;;;435.80;1075.20;;;;;;4980564;28;20484;-78
2021/04/10 10:29:14;;;;;;;15.13;10.20;;;435.90;1075.20;;;;;;4980124;28;20081;-77
2021/04/10 10:31:49;;;;;;;12.63;7.97;;;460.80;1100.80;;;;;;4994653;28;20110;-78
2021/04/10 10:34:17;;;;;;;13.30;8.20;;;461.00;1075.20;;;;;;4997877;28;20022;-78
2021/04/10 10:36:44;;;;;;;14.48;6.90;;;461.20;1049.60;;;;;;4980185;28;20086;-78
2021/04/10 10:39:29;;;;;;;13.90;8.45;;;461.40;1049.60;;;;;;4979622;28;20034;-78
2021/04/10 10:41:56;;;;;;;13.02;7.75;;;461.60;1049.60;;;;;;4980022;28;20034;-78
2021/04/10 10:44:22;;;;;;;16.58;7.43;;;461.70;1024.00;;;;;;4995869;28;20121;-78
2021/04/10 10:47:02;;;;;;;9.50;6.35;;;486.50;1024.00;;;;;;4997014;28;20122;-78
2021/04/10 10:49:28;;;;;;;21.50;11.25;;;486.70;998.40;;;;;;4980420;28;20359;-78
2021/04/10 10:51:54;;;;;;;12.20;6.88;;;486.80;998.40;;;;;;4996736;28;20053;-78
2021/04/10 10:54:39;;;;;;;8.75;5.20;;;486.50;947.20;;;;;;4979752;28;20022;-77
2021/04/10 10:57:10;;;;;;;16.50;7.10;;;461.40;972.80;;;;;;4980628;28;20022;-77
2021/04/10 10:59:36;;;;;;;11.65;7.22;;;486.60;972.80;;;;;;4979766;28;20121;-77
2021/04/10 11:02:01;;;;;;;12.10;5.80;;;487.20;972.80;;;;;;4980152;28;20439;-77
2021/04/10 11:04:34;;;;;;;10.98;6.22;;;486.80;947.20;;;;;;4996787;28;20054;-77
2021/04/10 11:07:02;;;;;;;11.38;5.07;;;487.00;947.20;;;;;;4979434;28;20537;-77
2021/04/10 11:09:30;;;;;;;39.53;25.33;;;487.00;896.00;;;;;;4996676;28;20434;-77
2021/04/10 11:11:59;;;;;;;13.35;7.95;;;487.20;921.60;;;;;;4996748;28;20050;-77
2021/04/10 11:14:28;;;;;;;10.18;6.20;;;512.00;896.00;;;;;;4979064;28;20059;-77
2021/04/10 11:16:56;;;;;;;11.55;7.30;;;512.00;921.60;;;;;;4997112;28;20477;-77
2021/04/10 11:19:35;;;;;;;24.98;14.32;;;512.10;947.20;;;;;;4996695;28;20026;-78
2021/04/10 11:22:03;;;;;;;14.73;11.32;;;512.60;972.80;;;;;;4979352;28;20042;-78
2021/04/10 11:24:42;;;;;;;12.35;6.72;;;537.60;921.60;;;;;;4996984;28;20035;-77
2021/04/10 11:27:15;;;;;;;15.40;10.32;;;537.60;921.60;;;;;;4978558;28;20085;-78
2021/04/10 11:29:51;;;;;;;;;;;512.70;896.00;;;;;;4979520;28;20382;-77
2021/04/10 11:32:36;;;;;;;13.90;9.95;;;512.40;947.20;;;;;;4995309;28;20413;-78
2021/04/10 11:35:05;;;;;;;16.98;7.43;;;512.90;921.60;;;;;;4978769;28;20030;-78
2021/04/10 11:37:31;;;;;;;19.20;8.95;;;537.70;921.60;;;;;;4978992;28;20030;-77
2021/04/10 11:40:04;;;;;;;9.23;5.55;;;537.70;947.20;;;;;;4978865;28;20129;-78
2021/04/10 11:42:47;;;;;;;12.27;5.80;;;537.60;896.00;;;;;;4995901;28;20362;-77
2021/04/10 11:45:34;;;;;;;16.92;9.73;;;537.90;896.00;;;;;;4995295;28;20022;-77
2021/04/10 11:48:12;;;;;;;16.20;10.93;;;538.00;896.00;;;;;;4995864;28;20524;-77
2021/04/10 11:50:49;;;;;;;14.95;8.77;;;538.20;896.00;;;;;;4996228;28;20129;-78
2021/04/10 11:53:26;;;;;;;10.88;8.05;;;538.40;896.00;;;;;;4978746;28;20078;-78
2021/04/10 11:55:53;;;;;;;10.10;5.25;;;538.50;921.60;;;;;;4994545;28;20028;-78
2021/04/10 11:58:36;;;;;;;11.82;5.65;;;538.40;870.40;;;;;;4996062;28;20069;-78
2021/04/10 12:01:07;;;;;;;11.02;6.13;;;563.20;947.20;;;;;;4996040;28;20038;-78
2021/04/10 12:03:46;;;;;;;14.18;9.18;;;538.20;921.60;;;;;;4978293;28;20061;-78
2021/04/10 12:06:26;;;;;;;10.68;5.75;;;538.20;896.00;;;;;;4995703;28;20410;-78
2021/04/10 12:08:52;;;;;;;10.57;6.40;;;538.20;921.60;;;;;;4995611;28;20485;-78
2021/04/10 12:11:17;;;;;;;8.20;5.65;;;538.40;896.00;;;;;;4978160;28;20026;-78
2021/04/10 12:13:43;;;;;;;10.18;5.78;;;538.10;870.40;;;;;;4978364;28;20030;-77
2021/04/10 12:16:09;;;;;;;11.27;5.20;;;538.50;896.00;;;;;;4977941;28;20034;-78
2021/04/10 12:18:35;;;;;;;13.43;6.22;;;563.20;921.60;;;;;;4995264;28;20042;-78